createdAt,value
2018-11-02T00:00:04.027Z,119
2018-11-02T00:05:03.900Z,119
2018-11-02T00:10:03.902Z,119
2018-11-02T00:15:03.891Z,119
2018-11-02T00:20:03.904Z,119
2018-11-02T00:25:03.913Z,119
2018-11-02T00:30:03.905Z,119
2018-11-02T00:35:03.915Z,119
2018-11-02T00:40:03.919Z,119
2018-11-02T00:45:03.931Z,119
2018-11-02T00:50:03.905Z,119
2018-11-02T00:55:03.946Z,119
2018-11-02T01:00:03.942Z,119
2018-11-02T01:05:03.913Z,119
2018-11-02T01:10:03.916Z,119
2018-11-02T01:15:03.965Z,119
2018-11-02T01:20:03.925Z,119
2018-11-02T01:25:03.942Z,119
2018-11-02T01:30:03.932Z,119
2018-11-02T01:35:03.937Z,119
2018-11-02T01:40:03.954Z,119
2018-11-02T01:45:03.949Z,119
2018-11-02T01:50:03.966Z,119
2018-11-02T01:55:03.940Z,119
2018-11-02T02:00:03.947Z,119
2018-11-02T02:05:04.021Z,119
2018-11-02T02:10:03.959Z,119
2018-11-02T02:15:03.993Z,119
2018-11-02T02:20:03.975Z,119
2018-11-02T02:25:04.340Z,119
2018-11-02T02:30:03.987Z,119
2018-11-02T02:35:04.267Z,119
2018-11-02T02:40:03.991Z,119
2018-11-02T02:45:04.283Z,119
2018-11-02T02:50:03.985Z,119
2018-11-02T02:55:04.049Z,119
2018-11-02T03:00:03.995Z,119
2018-11-02T03:05:04.003Z,119
2018-11-02T03:10:04.003Z,119
2018-11-02T03:15:04.025Z,119
2018-11-02T03:20:04.008Z,119
2018-11-02T03:25:04.003Z,119
2018-11-02T03:30:04.010Z,119
2018-11-02T03:35:04.016Z,119
2018-11-02T03:40:03.994Z,119
2018-11-02T03:45:04.004Z,119
2018-11-02T03:50:04.674Z,119
2018-11-02T03:55:04.072Z,119
2018-11-02T04:00:04.031Z,119
2018-11-02T04:05:04.007Z,119
2018-11-02T04:10:04.041Z,119
2018-11-02T04:15:04.020Z,119
2018-11-02T04:20:04.042Z,119
2018-11-02T04:25:04.050Z,119
2018-11-02T04:30:04.042Z,119
2018-11-02T04:35:04.035Z,119
2018-11-02T04:40:04.030Z,119
2018-11-02T04:45:04.060Z,119
2018-11-02T04:50:04.044Z,119
2018-11-02T04:55:04.059Z,119
2018-11-02T05:00:04.039Z,119
2018-11-02T05:05:04.065Z,119
2018-11-02T05:10:04.044Z,119
2018-11-02T05:15:04.069Z,119
2018-11-02T05:20:04.042Z,119
2018-11-02T05:25:04.064Z,119
2018-11-02T05:30:04.067Z,119
2018-11-02T05:35:04.055Z,119
2018-11-02T05:40:04.061Z,119
2018-11-02T05:45:04.092Z,119
2018-11-02T05:50:04.064Z,119
2018-11-02T05:55:04.067Z,119
2018-11-02T06:00:04.077Z,119
2018-11-02T06:05:04.076Z,119
2018-11-02T06:10:04.071Z,119
2018-11-02T06:15:04.088Z,119
2018-11-02T06:20:04.095Z,119
2018-11-02T06:25:04.111Z,119
2018-11-02T06:30:04.109Z,119
2018-11-02T06:35:04.105Z,119
2018-11-02T06:40:04.117Z,119
2018-11-02T06:45:04.607Z,119
2018-11-02T06:50:04.386Z,119
2018-11-02T06:55:04.140Z,119
2018-11-02T07:00:04.739Z,119
2018-11-02T07:05:04.117Z,119
2018-11-02T07:10:04.152Z,119
2018-11-02T07:15:04.119Z,119
2018-11-02T07:20:04.146Z,119
2018-11-02T07:25:04.368Z,119
2018-11-02T07:30:04.130Z,119
2018-11-02T07:35:04.156Z,119
2018-11-02T07:40:04.143Z,119
2018-11-02T07:45:04.139Z,119
2018-11-02T07:50:04.207Z,119
2018-11-02T07:55:04.133Z,119
2018-11-02T08:00:04.144Z,119
2018-11-02T08:05:04.157Z,119
2018-11-02T08:10:04.152Z,119
2018-11-02T08:15:04.151Z,119
2018-11-02T08:20:04.180Z,119
2018-11-02T08:25:04.178Z,119
2018-11-02T08:30:04.181Z,119
2018-11-02T08:35:04.161Z,119
2018-11-02T08:40:04.158Z,119
2018-11-02T08:45:04.166Z,119
2018-11-02T08:50:04.172Z,119
2018-11-02T08:55:04.183Z,119
2018-11-02T09:00:04.388Z,119
2018-11-02T09:05:04.342Z,119
2018-11-02T09:10:04.180Z,119
2018-11-02T09:15:04.185Z,119
2018-11-02T09:20:04.197Z,119
2018-11-02T09:25:04.201Z,119
2018-11-02T09:30:04.195Z,119
2018-11-02T09:35:04.203Z,119
2018-11-02T09:40:04.213Z,119
2018-11-02T09:45:04.221Z,119
2018-11-02T09:50:04.231Z,119
2018-11-02T09:55:04.213Z,119
2018-11-02T10:00:04.247Z,119
2018-11-02T10:05:04.226Z,119
2018-11-02T10:10:04.238Z,119
2018-11-02T10:15:04.200Z,119
2018-11-02T10:20:04.260Z,119
2018-11-02T10:25:04.204Z,119
2018-11-02T10:30:04.228Z,119
2018-11-02T10:35:04.214Z,119
2018-11-02T10:40:04.240Z,119
2018-11-02T10:45:04.500Z,119
2018-11-02T10:50:04.232Z,119
2018-11-02T10:55:04.252Z,119
2018-11-02T11:00:04.251Z,119
2018-11-02T11:05:04.266Z,119
2018-11-02T11:10:04.268Z,119
2018-11-02T11:15:04.262Z,119
2018-11-02T11:20:04.248Z,119
2018-11-02T11:25:04.305Z,119
2018-11-02T11:30:04.269Z,119
2018-11-02T11:35:04.271Z,119
2018-11-02T11:40:04.297Z,119
2018-11-02T11:45:04.278Z,119
2018-11-02T11:50:04.289Z,119
2018-11-02T11:55:04.298Z,119
2018-11-02T12:00:04.275Z,109.16
2018-11-02T12:05:04.673Z,82.68
2018-11-02T12:10:04.300Z,80.79
2018-11-02T12:15:04.288Z,71.73
2018-11-02T12:20:04.289Z,60.53
2018-11-02T12:25:04.289Z,77.48
2018-11-02T12:30:04.289Z,84.66
2018-11-02T12:35:04.304Z,83.93
2018-11-02T12:40:04.302Z,90.18
2018-11-02T12:45:04.323Z,99.11
2018-11-02T12:50:04.498Z,90.07
2018-11-02T12:55:04.302Z,101.17
2018-11-02T13:00:04.317Z,98.32
2018-11-02T13:05:04.320Z,91.45
2018-11-02T13:10:04.336Z,101.78
2018-11-02T13:15:04.320Z,77.5
2018-11-02T13:20:04.581Z,51.21
2018-11-02T13:25:04.355Z,27.49
2018-11-02T13:30:04.672Z,-0.27
2018-11-02T13:35:04.339Z,-6
2018-11-02T13:40:04.339Z,-6
2018-11-02T13:45:04.322Z,-6
2018-11-02T13:50:04.417Z,16.34
2018-11-02T13:55:04.358Z,30.93
2018-11-02T14:00:04.693Z,55.01
2018-11-02T14:05:04.348Z,61.36
2018-11-02T14:10:04.353Z,73.47
2018-11-02T14:15:04.356Z,80.82
2018-11-02T14:20:04.357Z,82.76
2018-11-02T14:25:04.383Z,86.01
2018-11-02T14:30:04.362Z,84.29
2018-11-02T14:35:04.355Z,87.07
2018-11-02T14:40:04.393Z,97.63
2018-11-02T14:45:04.371Z,100.76
2018-11-02T14:50:04.380Z,116.75
2018-11-02T14:55:04.395Z,119
2018-11-02T15:00:04.377Z,119
2018-11-02T15:05:04.376Z,119
2018-11-02T15:10:04.385Z,119
2018-11-02T15:15:04.375Z,119
2018-11-02T15:20:04.386Z,119
2018-11-02T15:25:04.406Z,119
2018-11-02T15:30:04.377Z,119
2018-11-02T15:35:04.392Z,119
2018-11-02T15:40:04.422Z,119
2018-11-02T15:45:04.393Z,119
2018-11-02T15:50:04.389Z,119
2018-11-02T15:55:04.419Z,119
2018-11-02T16:00:04.410Z,119
2018-11-02T16:05:04.399Z,119
2018-11-02T16:10:04.414Z,119
2018-11-02T16:15:04.419Z,119
2018-11-02T16:20:04.579Z,119
2018-11-02T16:25:04.422Z,119
2018-11-02T16:30:04.481Z,119
2018-11-02T16:35:04.415Z,119
2018-11-02T16:40:04.476Z,119
2018-11-02T16:45:04.412Z,119
2018-11-02T16:50:04.513Z,119
2018-11-02T16:55:03.428Z,119
2018-11-02T17:00:03.473Z,119
2018-11-02T17:05:03.709Z,119
2018-11-02T17:10:03.437Z,119
2018-11-02T17:15:03.440Z,119
2018-11-02T17:20:03.498Z,119
2018-11-02T17:25:03.445Z,119
2018-11-02T17:30:03.448Z,119
2018-11-02T17:35:03.450Z,119
2018-11-02T17:40:03.446Z,119
2018-11-02T17:45:03.464Z,119
2018-11-02T17:50:03.457Z,119
2018-11-02T17:55:03.462Z,119
2018-11-02T18:00:03.477Z,119
2018-11-02T18:05:03.462Z,119
2018-11-02T18:10:03.462Z,119
2018-11-02T18:15:03.537Z,119
2018-11-02T18:20:03.475Z,119
2018-11-02T18:25:03.468Z,119
2018-11-02T18:30:03.500Z,119
2018-11-02T18:35:03.545Z,119
2018-11-02T18:40:03.496Z,119
2018-11-02T18:45:03.491Z,119
2018-11-02T18:50:03.482Z,119
2018-11-02T18:55:03.499Z,119
2018-11-02T19:00:03.504Z,119
2018-11-02T19:05:03.492Z,119
2018-11-02T19:10:03.502Z,119
2018-11-02T19:15:03.533Z,119
2018-11-02T19:20:03.969Z,119
2018-11-02T19:25:03.512Z,119
2018-11-02T19:30:03.529Z,119
2018-11-02T19:35:04.048Z,119
2018-11-02T19:40:03.512Z,119
2018-11-02T19:45:03.542Z,119
2018-11-02T19:50:03.524Z,119
2018-11-02T19:55:03.684Z,119
2018-11-02T20:00:03.555Z,119
2018-11-02T20:05:03.542Z,119
2018-11-02T20:10:03.547Z,119
2018-11-02T20:15:03.555Z,119
2018-11-02T20:20:03.535Z,119
2018-11-02T20:25:03.563Z,119
2018-11-02T20:30:03.574Z,119
2018-11-02T20:35:03.609Z,119
2018-11-02T20:40:03.559Z,119
2018-11-02T20:45:03.580Z,119
2018-11-02T20:50:03.560Z,119
2018-11-02T20:55:03.581Z,119
2018-11-02T21:00:03.584Z,119
2018-11-02T21:05:03.566Z,119
2018-11-02T21:10:03.569Z,119
2018-11-02T21:15:03.943Z,119
2018-11-02T21:20:03.582Z,119
2018-11-02T21:25:03.585Z,119
2018-11-02T21:30:03.607Z,119
2018-11-02T21:35:03.590Z,119
2018-11-02T21:40:03.593Z,119
2018-11-02T21:45:03.617Z,119
2018-11-02T21:50:03.584Z,119
2018-11-02T21:55:03.595Z,119
2018-11-02T22:00:03.622Z,119
2018-11-02T22:05:03.592Z,119
2018-11-02T22:10:03.794Z,119
2018-11-02T22:15:03.610Z,119
2018-11-02T22:20:03.808Z,119
2018-11-02T22:25:03.613Z,119
2018-11-02T22:30:03.970Z,119
2018-11-02T22:35:03.613Z,119
2018-11-02T22:40:03.906Z,119
2018-11-02T22:45:03.625Z,119
2018-11-02T22:50:03.825Z,119
2018-11-02T22:55:03.617Z,119
2018-11-02T23:00:03.664Z,119
2018-11-02T23:05:03.655Z,119
2018-11-02T23:10:03.643Z,119
2018-11-02T23:15:03.643Z,119
2018-11-02T23:20:03.639Z,119
2018-11-02T23:25:03.645Z,119
2018-11-02T23:30:03.885Z,119
2018-11-02T23:35:03.661Z,119
2018-11-02T23:40:03.662Z,119
2018-11-02T23:45:04.037Z,119
2018-11-02T23:50:03.684Z,119
2018-11-02T23:55:03.673Z,119
